メインページ
METAR-TAF:

METAR-TAF

空港 :

ヌアクショット, モーリタニア

ヌアクショット空港

緯度: 18-18-36N, 経度: 015-58-11W, 海抜: 3m

現時点の気象観測

当レポートは38分前の19:00(UTC)に作成
西の風 11kt
気温 19°C
湿度 83%
気圧 1012 hPa
視程10km以上
1,500メートル以下は雲なし、積乱雲なし

METAR: GQNO 251900Z 27011KT CAVOK 19/16 Q1012 NOSIG

時間: 19:38 (19:38 UTC)

予報

当レポートは2時間38分前の17:00(UTC)に作成
予報は25日の 18時(UTC)から 26日の 24時(UTC)まで有効
西/北西の風 10kt
視程10km以上
高度1000ftの雲はほとんどない
25日の 18時(UTC)から 25日の 22時(UTC)まで徐々に
高度800ftの千切れ雲あり
26日の 03時(UTC)から 26日の 08時(UTC)まで一時的に
視程: 2000m
高度800ftの雲は散在している
26日の 04時(UTC)から 26日の 07時(UTC)まで徐々に
26日の 04時(UTC)から 26日の 08時(UTC)まで一時的に
視程: 0500m
26日の 08時(UTC)から 26日の 10時(UTC)まで徐々に
北西の風 8kt

TAF: GQNO 251700Z 2518/2624 30010KT 9999 FEW010 BECMG 2518/2522 BKN008 TEMPO 2603/2608 2000 BR SCT008 BECMG 2604/2607 VBR03KT TEMPO 2604/2608 0500 FG BECMG 2608/2610 32008KT NSW NSC

4,000以上の空港の気象観測と天気予報(METAR報とTAF報)

利用可能な観測所は地図上に黄色い丸と赤い丸で示す。

丸の上にカーソルを重ねると観測所名を参照できる。

次にクリックすると気象観測と天気予報を参照できる。

マップの切り替え:黒色「×」印の緑ボタンをクリックして拡大、「-」印の緑ボタンをクリックして縮小、緑色の三角印をクリックして隣りの地図に切り替え


METAR-TAF: